sensor_id;sensor_type;location;lat;lon;timestamp;P1;durP1;ratioP1;P2;durP2;ratioP2
45842;SDS011;31563;51.744;8.252;2022-11-13T00:01:07;5.77;;;4.27;;
45842;SDS011;31563;51.744;8.252;2022-11-13T00:03:37;7.20;;;4.03;;
45842;SDS011;31563;51.744;8.252;2022-11-13T00:06:05;5.13;;;3.67;;
45842;SDS011;31563;51.744;8.252;2022-11-13T00:08:34;6.82;;;3.90;;
45842;SDS011;31563;51.744;8.252;2022-11-13T00:11:03;6.43;;;4.22;;
45842;SDS011;31563;51.744;8.252;2022-11-13T00:13:32;6.10;;;3.47;;
45842;SDS011;31563;51.744;8.252;2022-11-13T00:16:01;7.60;;;3.92;;
45842;SDS011;31563;51.744;8.252;2022-11-13T00:18:32;6.38;;;4.07;;
45842;SDS011;31563;51.744;8.252;2022-11-13T00:21:06;4.63;;;3.60;;
45842;SDS011;31563;51.744;8.252;2022-11-13T00:23:35;5.97;;;4.25;;
45842;SDS011;31563;51.744;8.252;2022-11-13T00:26:07;5.20;;;3.50;;
45842;SDS011;31563;51.744;8.252;2022-11-13T00:28:36;6.07;;;4.07;;
45842;SDS011;31563;51.744;8.252;2022-11-13T00:31:05;4.72;;;3.38;;
45842;SDS011;31563;51.744;8.252;2022-11-13T00:33:34;5.60;;;3.85;;
45842;SDS011;31563;51.744;8.252;2022-11-13T00:36:24;6.22;;;4.22;;
45842;SDS011;31563;51.744;8.252;2022-11-13T00:38:54;5.75;;;4.00;;
45842;SDS011;31563;51.744;8.252;2022-11-13T00:41:22;6.13;;;4.55;;
45842;SDS011;31563;51.744;8.252;2022-11-13T00:43:51;4.75;;;3.58;;
45842;SDS011;31563;51.744;8.252;2022-11-13T00:46:19;4.93;;;3.85;;
45842;SDS011;31563;51.744;8.252;2022-11-13T00:48:47;4.05;;;3.60;;
45842;SDS011;31563;51.744;8.252;2022-11-13T00:51:15;4.75;;;4.13;;
45842;SDS011;31563;51.744;8.252;2022-11-13T00:53:46;6.40;;;4.25;;
45842;SDS011;31563;51.744;8.252;2022-11-13T00:56:14;3.83;;;3.03;;
45842;SDS011;31563;51.744;8.252;2022-11-13T00:58:45;5.43;;;3.78;;
45842;SDS011;31563;51.744;8.252;2022-11-13T01:01:14;5.25;;;4.13;;
45842;SDS011;31563;51.744;8.252;2022-11-13T01:03:44;4.30;;;3.90;;
45842;SDS011;31563;51.744;8.252;2022-11-13T01:06:13;5.93;;;4.03;;
45842;SDS011;31563;51.744;8.252;2022-11-13T01:08:44;4.10;;;3.50;;
45842;SDS011;31563;51.744;8.252;2022-11-13T01:11:14;5.00;;;3.65;;
45842;SDS011;31563;51.744;8.252;2022-11-13T01:13:44;4.22;;;3.58;;
45842;SDS011;31563;51.744;8.252;2022-11-13T01:16:15;5.57;;;4.18;;
45842;SDS011;31563;51.744;8.252;2022-11-13T01:18:44;6.35;;;3.75;;
45842;SDS011;31563;51.744;8.252;2022-11-13T01:21:14;4.90;;;4.05;;
45842;SDS011;31563;51.744;8.252;2022-11-13T01:23:43;7.95;;;3.60;;
45842;SDS011;31563;51.744;8.252;2022-11-13T01:26:14;5.68;;;3.75;;
45842;SDS011;31563;51.744;8.252;2022-11-13T01:28:44;5.38;;;3.97;;
45842;SDS011;31563;51.744;8.252;2022-11-13T01:31:14;4.60;;;3.67;;
45842;SDS011;31563;51.744;8.252;2022-11-13T01:33:44;4.65;;;3.72;;
45842;SDS011;31563;51.744;8.252;2022-11-13T01:36:14;4.57;;;3.35;;
45842;SDS011;31563;51.744;8.252;2022-11-13T01:38:43;4.90;;;3.63;;
45842;SDS011;31563;51.744;8.252;2022-11-13T01:41:16;3.70;;;3.30;;
45842;SDS011;31563;51.744;8.252;2022-11-13T01:43:49;4.57;;;3.70;;
45842;SDS011;31563;51.744;8.252;2022-11-13T01:46:20;6.88;;;3.50;;
45842;SDS011;31563;51.744;8.252;2022-11-13T01:48:52;4.28;;;3.30;;
45842;SDS011;31563;51.744;8.252;2022-11-13T01:51:26;4.28;;;3.33;;
45842;SDS011;31563;51.744;8.252;2022-11-13T01:54:02;4.07;;;3.30;;
45842;SDS011;31563;51.744;8.252;2022-11-13T01:56:33;3.95;;;3.40;;
45842;SDS011;31563;51.744;8.252;2022-11-13T01:59:03;4.20;;;3.28;;
45842;SDS011;31563;51.744;8.252;2022-11-13T02:01:35;4.32;;;3.75;;
45842;SDS011;31563;51.744;8.252;2022-11-13T02:04:03;4.38;;;3.60;;
45842;SDS011;31563;51.744;8.252;2022-11-13T02:06:33;3.60;;;2.85;;
45842;SDS011;31563;51.744;8.252;2022-11-13T02:09:06;3.90;;;3.10;;
45842;SDS011;31563;51.744;8.252;2022-11-13T02:11:36;4.28;;;3.28;;
45842;SDS011;31563;51.744;8.252;2022-11-13T02:14:05;3.60;;;3.20;;
45842;SDS011;31563;51.744;8.252;2022-11-13T02:16:35;4.28;;;3.42;;
45842;SDS011;31563;51.744;8.252;2022-11-13T02:19:05;3.50;;;2.88;;
45842;SDS011;31563;51.744;8.252;2022-11-13T02:21:43;4.63;;;3.42;;
45842;SDS011;31563;51.744;8.252;2022-11-13T02:24:22;3.72;;;3.40;;
45842;SDS011;31563;51.744;8.252;2022-11-13T02:26:55;4.55;;;3.22;;
45842;SDS011;31563;51.744;8.252;2022-11-13T02:29:28;4.28;;;2.90;;
45842;SDS011;31563;51.744;8.252;2022-11-13T02:31:56;3.85;;;3.10;;
45842;SDS011;31563;51.744;8.252;2022-11-13T02:34:24;4.45;;;3.35;;
45842;SDS011;31563;51.744;8.252;2022-11-13T02:36:52;4.25;;;2.97;;
45842;SDS011;31563;51.744;8.252;2022-11-13T02:39:22;3.28;;;2.83;;
45842;SDS011;31563;51.744;8.252;2022-11-13T02:41:50;4.43;;;3.28;;
45842;SDS011;31563;51.744;8.252;2022-11-13T02:44:18;4.25;;;3.22;;
45842;SDS011;31563;51.744;8.252;2022-11-13T02:46:46;4.10;;;3.08;;
45842;SDS011;31563;51.744;8.252;2022-11-13T02:49:14;3.55;;;3.08;;
45842;SDS011;31563;51.744;8.252;2022-11-13T02:51:42;3.88;;;3.00;;
45842;SDS011;31563;51.744;8.252;2022-11-13T02:54:10;3.20;;;2.78;;
45842;SDS011;31563;51.744;8.252;2022-11-13T02:56:43;4.30;;;3.30;;
45842;SDS011;31563;51.744;8.252;2022-11-13T02:59:12;3.17;;;2.63;;
45842;SDS011;31563;51.744;8.252;2022-11-13T03:01:40;2.80;;;2.50;;
45842;SDS011;31563;51.744;8.252;2022-11-13T03:04:08;5.40;;;3.13;;
45842;SDS011;31563;51.744;8.252;2022-11-13T03:06:36;3.15;;;2.80;;
45842;SDS011;31563;51.744;8.252;2022-11-13T03:09:04;3.05;;;2.75;;
45842;SDS011;31563;51.744;8.252;2022-11-13T03:11:32;3.72;;;3.10;;
45842;SDS011;31563;51.744;8.252;2022-11-13T03:14:02;3.33;;;2.65;;
45842;SDS011;31563;51.744;8.252;2022-11-13T03:16:30;3.03;;;2.70;;
45842;SDS011;31563;51.744;8.252;2022-11-13T03:18:58;3.40;;;3.00;;
45842;SDS011;31563;51.744;8.252;2022-11-13T03:21:26;6.75;;;3.10;;
45842;SDS011;31563;51.744;8.252;2022-11-13T03:23:54;3.35;;;3.05;;
45842;SDS011;31563;51.744;8.252;2022-11-13T03:26:22;3.15;;;2.85;;
45842;SDS011;31563;51.744;8.252;2022-11-13T03:28:53;3.53;;;3.15;;
45842;SDS011;31563;51.744;8.252;2022-11-13T03:31:23;3.95;;;3.33;;
45842;SDS011;31563;51.744;8.252;2022-11-13T03:33:51;3.28;;;2.65;;
45842;SDS011;31563;51.744;8.252;2022-11-13T03:36:19;3.10;;;2.60;;
45842;SDS011;31563;51.744;8.252;2022-11-13T03:38:48;3.10;;;2.80;;
45842;SDS011;31563;51.744;8.252;2022-11-13T03:41:16;4.55;;;3.00;;
45842;SDS011;31563;51.744;8.252;2022-11-13T03:43:44;3.17;;;2.65;;
45842;SDS011;31563;51.744;8.252;2022-11-13T03:46:12;3.08;;;2.70;;
45842;SDS011;31563;51.744;8.252;2022-11-13T03:48:42;3.13;;;2.67;;
45842;SDS011;31563;51.744;8.252;2022-11-13T03:51:10;3.75;;;2.50;;
45842;SDS011;31563;51.744;8.252;2022-11-13T03:53:38;3.15;;;2.50;;
45842;SDS011;31563;51.744;8.252;2022-11-13T03:56:06;3.60;;;2.90;;
45842;SDS011;31563;51.744;8.252;2022-11-13T03:58:34;5.55;;;2.92;;
45842;SDS011;31563;51.744;8.252;2022-11-13T04:01:05;3.13;;;2.83;;
45842;SDS011;31563;51.744;8.252;2022-11-13T04:03:34;3.20;;;2.78;;
45842;SDS011;31563;51.744;8.252;2022-11-13T04:06:04;3.35;;;3.05;;
45842;SDS011;31563;51.744;8.252;2022-11-13T04:08:32;3.50;;;2.70;;
45842;SDS011;31563;51.744;8.252;2022-11-13T04:11:07;2.65;;;2.45;;
45842;SDS011;31563;51.744;8.252;2022-11-13T04:13:36;3.17;;;2.42;;
45842;SDS011;31563;51.744;8.252;2022-11-13T04:16:04;2.83;;;2.55;;
45842;SDS011;31563;51.744;8.252;2022-11-13T04:18:33;3.10;;;2.80;;
45842;SDS011;31563;51.744;8.252;2022-11-13T04:21:01;3.13;;;2.72;;
45842;SDS011;31563;51.744;8.252;2022-11-13T04:23:32;3.38;;;2.75;;
45842;SDS011;31563;51.744;8.252;2022-11-13T04:26:00;2.80;;;2.60;;
45842;SDS011;31563;51.744;8.252;2022-11-13T04:28:28;2.58;;;2.38;;
45842;SDS011;31563;51.744;8.252;2022-11-13T04:30:57;3.00;;;2.70;;
45842;SDS011;31563;51.744;8.252;2022-11-13T04:33:25;3.92;;;3.08;;
45842;SDS011;31563;51.744;8.252;2022-11-13T04:35:53;2.83;;;2.53;;
45842;SDS011;31563;51.744;8.252;2022-11-13T04:38:23;2.85;;;2.55;;
45842;SDS011;31563;51.744;8.252;2022-11-13T04:40:51;2.85;;;2.42;;
45842;SDS011;31563;51.744;8.252;2022-11-13T04:43:39;3.08;;;2.60;;
45842;SDS011;31563;51.744;8.252;2022-11-13T04:46:06;3.75;;;2.55;;
45842;SDS011;31563;51.744;8.252;2022-11-13T04:48:34;2.28;;;1.98;;
45842;SDS011;31563;51.744;8.252;2022-11-13T04:51:03;2.92;;;2.30;;
45842;SDS011;31563;51.744;8.252;2022-11-13T04:53:32;3.85;;;2.38;;
45842;SDS011;31563;51.744;8.252;2022-11-13T04:56:01;2.95;;;2.60;;
45842;SDS011;31563;51.744;8.252;2022-11-13T04:58:29;2.92;;;2.55;;
45842;SDS011;31563;51.744;8.252;2022-11-13T05:00:57;2.47;;;2.22;;
45842;SDS011;31563;51.744;8.252;2022-11-13T05:03:25;3.15;;;2.13;;
45842;SDS011;31563;51.744;8.252;2022-11-13T05:05:55;2.53;;;2.25;;
45842;SDS011;31563;51.744;8.252;2022-11-13T05:08:28;2.38;;;2.03;;
45842;SDS011;31563;51.744;8.252;2022-11-13T05:10:58;2.35;;;1.98;;
45842;SDS011;31563;51.744;8.252;2022-11-13T05:13:29;2.67;;;2.47;;
45842;SDS011;31563;51.744;8.252;2022-11-13T05:16:01;2.80;;;2.55;;
45842;SDS011;31563;51.744;8.252;2022-11-13T05:18:30;2.95;;;2.22;;
45842;SDS011;31563;51.744;8.252;2022-11-13T05:21:01;2.33;;;2.10;;
45842;SDS011;31563;51.744;8.252;2022-11-13T05:23:29;3.47;;;2.35;;
45842;SDS011;31563;51.744;8.252;2022-11-13T05:26:02;3.45;;;2.45;;
45842;SDS011;31563;51.744;8.252;2022-11-13T05:28:32;3.53;;;2.40;;
45842;SDS011;31563;51.744;8.252;2022-11-13T05:31:03;3.08;;;2.35;;
45842;SDS011;31563;51.744;8.252;2022-11-13T05:33:32;2.40;;;2.20;;
45842;SDS011;31563;51.744;8.252;2022-11-13T05:36:01;2.75;;;2.30;;
45842;SDS011;31563;51.744;8.252;2022-11-13T05:38:29;2.83;;;2.17;;
45842;SDS011;31563;51.744;8.252;2022-11-13T05:41:02;3.97;;;2.70;;
45842;SDS011;31563;51.744;8.252;2022-11-13T05:43:31;4.13;;;2.65;;
45842;SDS011;31563;51.744;8.252;2022-11-13T05:46:00;2.25;;;1.92;;
45842;SDS011;31563;51.744;8.252;2022-11-13T05:48:29;2.35;;;1.95;;
45842;SDS011;31563;51.744;8.252;2022-11-13T05:51:00;4.28;;;1.90;;
45842;SDS011;31563;51.744;8.252;2022-11-13T05:53:29;3.30;;;2.00;;
45842;SDS011;31563;51.744;8.252;2022-11-13T05:55:59;2.70;;;2.50;;
45842;SDS011;31563;51.744;8.252;2022-11-13T05:58:29;2.83;;;2.53;;
45842;SDS011;31563;51.744;8.252;2022-11-13T06:01:04;2.97;;;2.30;;
45842;SDS011;31563;51.744;8.252;2022-11-13T06:03:34;2.63;;;2.28;;
45842;SDS011;31563;51.744;8.252;2022-11-13T06:06:02;4.10;;;2.42;;
45842;SDS011;31563;51.744;8.252;2022-11-13T06:08:31;3.55;;;2.30;;
45842;SDS011;31563;51.744;8.252;2022-11-13T06:10:59;2.35;;;2.15;;
45842;SDS011;31563;51.744;8.252;2022-11-13T06:13:30;2.40;;;2.20;;
45842;SDS011;31563;51.744;8.252;2022-11-13T06:15:59;3.60;;;2.70;;
45842;SDS011;31563;51.744;8.252;2022-11-13T06:20:59;3.92;;;2.28;;
45842;SDS011;31563;51.744;8.252;2022-11-13T06:23:27;3.00;;;2.22;;
45842;SDS011;31563;51.744;8.252;2022-11-13T06:25:58;2.88;;;2.33;;
45842;SDS011;31563;51.744;8.252;2022-11-13T06:28:27;2.60;;;2.00;;
45842;SDS011;31563;51.744;8.252;2022-11-13T06:31:01;4.78;;;2.40;;
45842;SDS011;31563;51.744;8.252;2022-11-13T06:33:30;4.65;;;2.42;;
45842;SDS011;31563;51.744;8.252;2022-11-13T06:35:59;4.85;;;2.35;;
45842;SDS011;31563;51.744;8.252;2022-11-13T06:38:29;4.03;;;2.20;;
45842;SDS011;31563;51.744;8.252;2022-11-13T06:40:59;3.50;;;1.90;;
45842;SDS011;31563;51.744;8.252;2022-11-13T06:43:27;4.47;;;2.20;;
45842;SDS011;31563;51.744;8.252;2022-11-13T06:45:58;3.75;;;2.03;;
45842;SDS011;31563;51.744;8.252;2022-11-13T06:48:29;3.63;;;2.08;;
45842;SDS011;31563;51.744;8.252;2022-11-13T06:50:59;3.40;;;1.92;;
45842;SDS011;31563;51.744;8.252;2022-11-13T06:53:28;3.28;;;2.03;;
45842;SDS011;31563;51.744;8.252;2022-11-13T06:55:57;2.92;;;2.00;;
45842;SDS011;31563;51.744;8.252;2022-11-13T06:58:26;4.43;;;2.30;;
45842;SDS011;31563;51.744;8.252;2022-11-13T07:00:56;3.90;;;1.63;;
45842;SDS011;31563;51.744;8.252;2022-11-13T07:03:25;2.38;;;1.70;;
45842;SDS011;31563;51.744;8.252;2022-11-13T07:05:53;3.92;;;1.63;;
45842;SDS011;31563;51.744;8.252;2022-11-13T07:08:21;4.35;;;2.45;;
45842;SDS011;31563;51.744;8.252;2022-11-13T07:10:53;7.25;;;1.95;;
45842;SDS011;31563;51.744;8.252;2022-11-13T07:13:22;3.70;;;2.25;;
45842;SDS011;31563;51.744;8.252;2022-11-13T07:15:51;6.55;;;1.98;;
45842;SDS011;31563;51.744;8.252;2022-11-13T07:18:21;3.92;;;1.98;;
45842;SDS011;31563;51.744;8.252;2022-11-13T07:20:49;4.82;;;2.13;;
45842;SDS011;31563;51.744;8.252;2022-11-13T07:23:17;6.03;;;2.47;;
45842;SDS011;31563;51.744;8.252;2022-11-13T07:25:45;3.63;;;1.75;;
45842;SDS011;31563;51.744;8.252;2022-11-13T07:28:13;2.72;;;1.83;;
45842;SDS011;31563;51.744;8.252;2022-11-13T07:30:42;5.35;;;1.70;;
45842;SDS011;31563;51.744;8.252;2022-11-13T07:33:10;6.78;;;1.98;;
45842;SDS011;31563;51.744;8.252;2022-11-13T07:35:39;3.53;;;2.35;;
45842;SDS011;31563;51.744;8.252;2022-11-13T07:40:36;5.65;;;1.98;;
45842;SDS011;31563;51.744;8.252;2022-11-13T07:43:04;4.10;;;1.65;;
45842;SDS011;31563;51.744;8.252;2022-11-13T07:45:32;6.38;;;2.20;;
45842;SDS011;31563;51.744;8.252;2022-11-13T07:48:01;3.78;;;1.95;;
45842;SDS011;31563;51.744;8.252;2022-11-13T07:50:30;7.03;;;1.95;;
45842;SDS011;31563;51.744;8.252;2022-11-13T07:53:01;2.92;;;1.52;;
45842;SDS011;31563;51.744;8.252;2022-11-13T07:55:31;4.97;;;1.92;;
45842;SDS011;31563;51.744;8.252;2022-11-13T07:58:00;3.27;;;1.60;;
45842;SDS011;31563;51.744;8.252;2022-11-13T08:00:29;5.93;;;2.53;;
45842;SDS011;31563;51.744;8.252;2022-11-13T08:03:03;4.65;;;1.75;;
45842;SDS011;31563;51.744;8.252;2022-11-13T08:05:31;4.72;;;1.75;;
45842;SDS011;31563;51.744;8.252;2022-11-13T08:08:01;4.43;;;1.88;;
45842;SDS011;31563;51.744;8.252;2022-11-13T08:10:29;6.10;;;1.83;;
45842;SDS011;31563;51.744;8.252;2022-11-13T08:12:58;4.15;;;1.83;;
45842;SDS011;31563;51.744;8.252;2022-11-13T08:15:27;4.93;;;1.90;;
45842;SDS011;31563;51.744;8.252;2022-11-13T08:17:56;4.13;;;2.00;;
45842;SDS011;31563;51.744;8.252;2022-11-13T08:20:26;3.33;;;1.88;;
45842;SDS011;31563;51.744;8.252;2022-11-13T08:22:55;5.20;;;1.52;;
45842;SDS011;31563;51.744;8.252;2022-11-13T08:25:26;7.00;;;2.30;;
45842;SDS011;31563;51.744;8.252;2022-11-13T08:27:54;3.90;;;1.48;;
45842;SDS011;31563;51.744;8.252;2022-11-13T08:30:23;4.88;;;2.33;;
45842;SDS011;31563;51.744;8.252;2022-11-13T08:32:52;5.25;;;1.83;;
45842;SDS011;31563;51.744;8.252;2022-11-13T08:35:20;3.33;;;1.35;;
45842;SDS011;31563;51.744;8.252;2022-11-13T08:37:54;2.95;;;1.52;;
45842;SDS011;31563;51.744;8.252;2022-11-13T08:40:29;5.68;;;1.70;;
45842;SDS011;31563;51.744;8.252;2022-11-13T08:42:57;2.63;;;1.50;;
45842;SDS011;31563;51.744;8.252;2022-11-13T08:45:26;2.10;;;1.42;;
45842;SDS011;31563;51.744;8.252;2022-11-13T08:47:57;3.53;;;1.27;;
45842;SDS011;31563;51.744;8.252;2022-11-13T08:50:26;3.65;;;1.55;;
45842;SDS011;31563;51.744;8.252;2022-11-13T08:52:55;2.85;;;1.40;;
45842;SDS011;31563;51.744;8.252;2022-11-13T08:55:24;3.35;;;1.38;;
45842;SDS011;31563;51.744;8.252;2022-11-13T08:57:56;5.97;;;2.03;;
45842;SDS011;31563;51.744;8.252;2022-11-13T09:00:25;3.70;;;1.92;;
45842;SDS011;31563;51.744;8.252;2022-11-13T09:02:53;5.60;;;1.90;;
45842;SDS011;31563;51.744;8.252;2022-11-13T09:05:22;2.75;;;1.60;;
45842;SDS011;31563;51.744;8.252;2022-11-13T09:07:50;3.63;;;1.50;;
45842;SDS011;31563;51.744;8.252;2022-11-13T09:10:23;3.45;;;1.60;;
45842;SDS011;31563;51.744;8.252;2022-11-13T09:12:56;3.00;;;1.48;;
45842;SDS011;31563;51.744;8.252;2022-11-13T09:15:24;3.45;;;1.70;;
45842;SDS011;31563;51.744;8.252;2022-11-13T09:17:54;2.67;;;1.63;;
45842;SDS011;31563;51.744;8.252;2022-11-13T09:20:23;4.28;;;1.77;;
45842;SDS011;31563;51.744;8.252;2022-11-13T09:22:55;3.08;;;1.50;;
45842;SDS011;31563;51.744;8.252;2022-11-13T09:25:24;3.70;;;1.52;;
45842;SDS011;31563;51.744;8.252;2022-11-13T09:28:01;3.78;;;1.42;;
45842;SDS011;31563;51.744;8.252;2022-11-13T09:30:29;4.47;;;1.88;;
45842;SDS011;31563;51.744;8.252;2022-11-13T09:32:58;6.20;;;2.13;;
45842;SDS011;31563;51.744;8.252;2022-11-13T09:35:28;5.30;;;2.47;;
45842;SDS011;31563;51.744;8.252;2022-11-13T09:38:03;6.22;;;2.17;;
45842;SDS011;31563;51.744;8.252;2022-11-13T09:40:38;8.18;;;2.00;;
45842;SDS011;31563;51.744;8.252;2022-11-13T09:43:14;7.45;;;1.95;;
45842;SDS011;31563;51.744;8.252;2022-11-13T09:45:52;7.43;;;1.85;;
45842;SDS011;31563;51.744;8.252;2022-11-13T09:48:25;7.10;;;1.83;;
45842;SDS011;31563;51.744;8.252;2022-11-13T09:50:57;5.22;;;1.88;;
45842;SDS011;31563;51.744;8.252;2022-11-13T09:56:01;3.85;;;1.67;;
45842;SDS011;31563;51.744;8.252;2022-11-13T09:58:44;4.40;;;1.75;;
45842;SDS011;31563;51.744;8.252;2022-11-13T10:01:29;4.28;;;1.85;;
45842;SDS011;31563;51.744;8.252;2022-11-13T10:04:04;5.38;;;1.80;;
45842;SDS011;31563;51.744;8.252;2022-11-13T10:06:43;4.70;;;1.90;;
45842;SDS011;31563;51.744;8.252;2022-11-13T10:09:23;4.65;;;1.98;;
45842;SDS011;31563;51.744;8.252;2022-11-13T10:11:56;3.63;;;1.60;;
45842;SDS011;31563;51.744;8.252;2022-11-13T10:14:30;6.50;;;2.10;;
45842;SDS011;31563;51.744;8.252;2022-11-13T10:17:07;4.80;;;1.58;;
45842;SDS011;31563;51.744;8.252;2022-11-13T10:19:43;6.60;;;1.88;;
45842;SDS011;31563;51.744;8.252;2022-11-13T10:22:18;8.27;;;1.95;;
45842;SDS011;31563;51.744;8.252;2022-11-13T10:25:02;4.45;;;1.65;;
45842;SDS011;31563;51.744;8.252;2022-11-13T10:27:38;5.68;;;1.60;;
45842;SDS011;31563;51.744;8.252;2022-11-13T10:30:13;8.95;;;2.10;;
45842;SDS011;31563;51.744;8.252;2022-11-13T10:32:43;11.18;;;1.95;;
45842;SDS011;31563;51.744;8.252;2022-11-13T10:35:18;9.05;;;1.70;;
45842;SDS011;31563;51.744;8.252;2022-11-13T10:37:59;5.85;;;1.77;;
45842;SDS011;31563;51.744;8.252;2022-11-13T10:40:34;7.22;;;1.88;;
45842;SDS011;31563;51.744;8.252;2022-11-13T10:43:05;8.10;;;1.50;;
45842;SDS011;31563;51.744;8.252;2022-11-13T10:45:41;6.50;;;1.75;;
45842;SDS011;31563;51.744;8.252;2022-11-13T10:48:19;6.78;;;1.70;;
45842;SDS011;31563;51.744;8.252;2022-11-13T10:50:52;7.80;;;1.70;;
45842;SDS011;31563;51.744;8.252;2022-11-13T10:53:21;6.07;;;1.90;;
45842;SDS011;31563;51.744;8.252;2022-11-13T10:55:52;5.68;;;1.30;;
45842;SDS011;31563;51.744;8.252;2022-11-13T10:58:22;3.38;;;1.30;;
45842;SDS011;31563;51.744;8.252;2022-11-13T11:00:52;8.50;;;1.38;;
45842;SDS011;31563;51.744;8.252;2022-11-13T11:05:52;3.60;;;1.20;;
45842;SDS011;31563;51.744;8.252;2022-11-13T11:08:22;3.50;;;1.00;;
45842;SDS011;31563;51.744;8.252;2022-11-13T11:10:56;4.00;;;1.10;;
45842;SDS011;31563;51.744;8.252;2022-11-13T11:13:43;3.55;;;1.35;;
45842;SDS011;31563;51.744;8.252;2022-11-13T11:16:15;4.10;;;1.40;;
45842;SDS011;31563;51.744;8.252;2022-11-13T11:18:50;2.90;;;1.00;;
45842;SDS011;31563;51.744;8.252;2022-11-13T11:21:24;4.32;;;1.33;;
45842;SDS011;31563;51.744;8.252;2022-11-13T11:23:56;2.35;;;1.27;;
45842;SDS011;31563;51.744;8.252;2022-11-13T11:26:29;5.57;;;1.48;;
45842;SDS011;31563;51.744;8.252;2022-11-13T11:29:02;2.88;;;1.00;;
45842;SDS011;31563;51.744;8.252;2022-11-13T11:31:43;3.42;;;1.13;;
45842;SDS011;31563;51.744;8.252;2022-11-13T11:34:18;6.07;;;1.33;;
45842;SDS011;31563;51.744;8.252;2022-11-13T11:36:53;5.10;;;1.30;;
45842;SDS011;31563;51.744;8.252;2022-11-13T11:39:28;4.95;;;1.17;;
45842;SDS011;31563;51.744;8.252;2022-11-13T11:42:08;5.88;;;1.15;;
45842;SDS011;31563;51.744;8.252;2022-11-13T11:44:48;5.10;;;1.15;;
45842;SDS011;31563;51.744;8.252;2022-11-13T11:47:30;4.75;;;1.10;;
45842;SDS011;31563;51.744;8.252;2022-11-13T11:49:59;2.55;;;0.90;;
45842;SDS011;31563;51.744;8.252;2022-11-13T11:55:24;4.68;;;1.45;;
45842;SDS011;31563;51.744;8.252;2022-11-13T11:58:04;3.50;;;1.13;;
45842;SDS011;31563;51.744;8.252;2022-11-13T12:00:52;4.50;;;1.13;;
45842;SDS011;31563;51.744;8.252;2022-11-13T12:06:19;5.50;;;1.52;;
45842;SDS011;31563;51.744;8.252;2022-11-13T12:08:57;6.25;;;1.65;;
45842;SDS011;31563;51.744;8.252;2022-11-13T12:11:30;2.88;;;1.25;;
45842;SDS011;31563;51.744;8.252;2022-11-13T12:14:03;2.95;;;1.10;;
45842;SDS011;31563;51.744;8.252;2022-11-13T12:16:41;2.35;;;0.82;;
45842;SDS011;31563;51.744;8.252;2022-11-13T12:19:18;1.90;;;1.08;;
45842;SDS011;31563;51.744;8.252;2022-11-13T12:21:56;2.83;;;1.40;;
45842;SDS011;31563;51.744;8.252;2022-11-13T12:27:28;1.27;;;0.90;;
45842;SDS011;31563;51.744;8.252;2022-11-13T12:30:03;2.03;;;1.15;;
45842;SDS011;31563;51.744;8.252;2022-11-13T12:33:02;2.00;;;1.20;;
45842;SDS011;31563;51.744;8.252;2022-11-13T12:35:39;1.37;;;0.90;;
45842;SDS011;31563;51.744;8.252;2022-11-13T12:38:10;1.73;;;0.98;;
45842;SDS011;31563;51.744;8.252;2022-11-13T12:40:49;1.23;;;0.77;;
45842;SDS011;31563;51.744;8.252;2022-11-13T12:43:28;1.35;;;0.93;;
45842;SDS011;31563;51.744;8.252;2022-11-13T12:46:30;1.42;;;1.00;;
45842;SDS011;31563;51.744;8.252;2022-11-13T12:49:01;1.15;;;0.88;;
45842;SDS011;31563;51.744;8.252;2022-11-13T12:51:51;1.52;;;0.73;;
45842;SDS011;31563;51.744;8.252;2022-11-13T12:54:24;1.17;;;0.82;;
45842;SDS011;31563;51.744;8.252;2022-11-13T12:57:03;1.30;;;0.93;;
45842;SDS011;31563;51.744;8.252;2022-11-13T12:59:44;4.03;;;1.10;;
45842;SDS011;31563;51.744;8.252;2022-11-13T13:02:31;3.88;;;1.40;;
45842;SDS011;31563;51.744;8.252;2022-11-13T13:05:13;1.52;;;0.73;;
45842;SDS011;31563;51.744;8.252;2022-11-13T13:07:54;2.97;;;0.98;;
45842;SDS011;31563;51.744;8.252;2022-11-13T13:11:02;1.80;;;0.80;;
45842;SDS011;31563;51.744;8.252;2022-11-13T13:13:42;3.17;;;0.85;;
45842;SDS011;31563;51.744;8.252;2022-11-13T13:16:19;2.55;;;0.60;;
45842;SDS011;31563;51.744;8.252;2022-11-13T13:18:50;2.10;;;0.77;;
45842;SDS011;31563;51.744;8.252;2022-11-13T13:21:19;2.65;;;0.75;;
45842;SDS011;31563;51.744;8.252;2022-11-13T13:26:19;1.40;;;0.50;;
45842;SDS011;31563;51.744;8.252;2022-11-13T13:28:49;3.28;;;0.77;;
45842;SDS011;31563;51.744;8.252;2022-11-13T13:31:21;1.88;;;0.90;;
45842;SDS011;31563;51.744;8.252;2022-11-13T13:33:59;1.65;;;0.60;;
45842;SDS011;31563;51.744;8.252;2022-11-13T13:36:42;1.35;;;0.73;;
45842;SDS011;31563;51.744;8.252;2022-11-13T13:39:20;1.15;;;0.68;;
45842;SDS011;31563;51.744;8.252;2022-11-13T13:42:02;1.83;;;0.68;;
45842;SDS011;31563;51.744;8.252;2022-11-13T13:44:49;2.75;;;1.05;;
45842;SDS011;31563;51.744;8.252;2022-11-13T13:47:26;2.58;;;0.95;;
45842;SDS011;31563;51.744;8.252;2022-11-13T13:49:57;1.50;;;0.90;;
45842;SDS011;31563;51.744;8.252;2022-11-13T13:52:27;1.05;;;0.80;;
45842;SDS011;31563;51.744;8.252;2022-11-13T13:54:58;2.90;;;0.60;;
45842;SDS011;31563;51.744;8.252;2022-11-13T13:57:27;3.65;;;0.90;;
45842;SDS011;31563;51.744;8.252;2022-11-13T13:59:56;6.90;;;0.70;;
45842;SDS011;31563;51.744;8.252;2022-11-13T14:02:24;1.80;;;0.60;;
45842;SDS011;31563;51.744;8.252;2022-11-13T14:04:53;1.88;;;0.60;;
45842;SDS011;31563;51.744;8.252;2022-11-13T14:07:22;2.57;;;0.60;;
45842;SDS011;31563;51.744;8.252;2022-11-13T14:10:07;9.70;;;1.40;;
45842;SDS011;31563;51.744;8.252;2022-11-13T14:12:41;10.50;;;2.63;;
45842;SDS011;31563;51.744;8.252;2022-11-13T14:15:23;15.55;;;4.82;;
45842;SDS011;31563;51.744;8.252;2022-11-13T14:18:03;7.03;;;2.50;;
45842;SDS011;31563;51.744;8.252;2022-11-13T14:20:37;10.18;;;2.90;;
45842;SDS011;31563;51.744;8.252;2022-11-13T14:23:11;16.80;;;4.55;;
45842;SDS011;31563;51.744;8.252;2022-11-13T14:25:45;18.15;;;4.10;;
45842;SDS011;31563;51.744;8.252;2022-11-13T14:28:14;15.13;;;4.90;;
45842;SDS011;31563;51.744;8.252;2022-11-13T14:30:43;16.05;;;4.43;;
45842;SDS011;31563;51.744;8.252;2022-11-13T14:33:20;13.32;;;3.30;;
45842;SDS011;31563;51.744;8.252;2022-11-13T14:35:51;10.93;;;3.13;;
45842;SDS011;31563;51.744;8.252;2022-11-13T14:38:22;11.57;;;3.13;;
45842;SDS011;31563;51.744;8.252;2022-11-13T14:40:55;12.82;;;3.40;;
45842;SDS011;31563;51.744;8.252;2022-11-13T14:43:24;10.30;;;3.08;;
45842;SDS011;31563;51.744;8.252;2022-11-13T14:45:56;9.43;;;3.22;;
45842;SDS011;31563;51.744;8.252;2022-11-13T14:48:26;13.48;;;3.13;;
45842;SDS011;31563;51.744;8.252;2022-11-13T14:50:56;12.10;;;2.45;;
45842;SDS011;31563;51.744;8.252;2022-11-13T14:53:26;9.52;;;2.67;;
45842;SDS011;31563;51.744;8.252;2022-11-13T14:55:59;8.40;;;2.45;;
45842;SDS011;31563;51.744;8.252;2022-11-13T14:58:31;6.25;;;2.20;;
45842;SDS011;31563;51.744;8.252;2022-11-13T15:01:11;12.57;;;2.80;;
45842;SDS011;31563;51.744;8.252;2022-11-13T15:03:41;8.15;;;2.70;;
45842;SDS011;31563;51.744;8.252;2022-11-13T15:06:11;8.60;;;2.25;;
45842;SDS011;31563;51.744;8.252;2022-11-13T15:08:42;9.30;;;2.13;;
45842;SDS011;31563;51.744;8.252;2022-11-13T15:11:13;8.20;;;2.17;;
45842;SDS011;31563;51.744;8.252;2022-11-13T15:13:42;7.45;;;2.10;;
45842;SDS011;31563;51.744;8.252;2022-11-13T15:16:11;9.00;;;2.67;;
45842;SDS011;31563;51.744;8.252;2022-11-13T15:18:42;5.65;;;1.88;;
45842;SDS011;31563;51.744;8.252;2022-11-13T15:21:14;6.57;;;2.25;;
45842;SDS011;31563;51.744;8.252;2022-11-13T15:23:43;4.97;;;1.90;;
45842;SDS011;31563;51.744;8.252;2022-11-13T15:26:13;6.85;;;1.90;;
45842;SDS011;31563;51.744;8.252;2022-11-13T15:28:41;5.55;;;1.88;;
45842;SDS011;31563;51.744;8.252;2022-11-13T15:31:13;7.68;;;2.05;;
45842;SDS011;31563;51.744;8.252;2022-11-13T15:33:45;6.70;;;1.98;;
45842;SDS011;31563;51.744;8.252;2022-11-13T15:36:14;7.10;;;2.03;;